sensor_id;sensor_type;location;lat;lon;timestamp;temperature;humidity
74661;SHT31;63191;39.566;2.654;2023-07-31T00:01:26;28.54;75.26
74661;SHT31;63191;39.566;2.654;2023-07-31T00:03:51;28.53;75.27
74661;SHT31;63191;39.566;2.654;2023-07-31T00:06:17;28.53;75.30
74661;SHT31;63191;39.566;2.654;2023-07-31T00:08:43;28.55;75.28
74661;SHT31;63191;39.566;2.654;2023-07-31T00:11:08;28.58;75.29
74661;SHT31;63191;39.566;2.654;2023-07-31T00:13:34;28.61;75.30
74661;SHT31;63191;39.566;2.654;2023-07-31T00:16:00;28.63;75.31
74661;SHT31;63191;39.566;2.654;2023-07-31T00:18:25;28.63;75.36
74661;SHT31;63191;39.566;2.654;2023-07-31T00:20:51;28.66;75.30
74661;SHT31;63191;39.566;2.654;2023-07-31T00:23:17;28.71;75.26
74661;SHT31;63191;39.566;2.654;2023-07-31T00:25:42;28.75;75.22
74661;SHT31;63191;39.566;2.654;2023-07-31T00:28:08;28.77;75.20
74661;SHT31;63191;39.566;2.654;2023-07-31T00:30:34;28.79;75.11
74661;SHT31;63191;39.566;2.654;2023-07-31T00:32:59;28.78;75.10
74661;SHT31;63191;39.566;2.654;2023-07-31T00:35:25;28.79;75.02
74661;SHT31;63191;39.566;2.654;2023-07-31T00:37:51;28.78;75.03
74661;SHT31;63191;39.566;2.654;2023-07-31T00:40:17;28.78;75.06
74661;SHT31;63191;39.566;2.654;2023-07-31T00:42:42;28.77;74.98
74661;SHT31;63191;39.566;2.654;2023-07-31T00:45:08;28.78;74.87
74661;SHT31;63191;39.566;2.654;2023-07-31T00:47:34;28.78;74.41
74661;SHT31;63191;39.566;2.654;2023-07-31T00:50:00;28.76;73.94
74661;SHT31;63191;39.566;2.654;2023-07-31T00:52:26;28.75;73.73
74661;SHT31;63191;39.566;2.654;2023-07-31T00:54:51;28.76;73.65
74661;SHT31;63191;39.566;2.654;2023-07-31T00:57:17;28.76;73.60
74661;SHT31;63191;39.566;2.654;2023-07-31T00:59:43;28.76;73.50
74661;SHT31;63191;39.566;2.654;2023-07-31T01:02:09;28.75;73.33
74661;SHT31;63191;39.566;2.654;2023-07-31T01:04:35;28.76;73.21
74661;SHT31;63191;39.566;2.654;2023-07-31T01:09:44;28.76;72.98
74661;SHT31;63191;39.566;2.654;2023-07-31T01:12:14;28.76;72.90
74661;SHT31;63191;39.566;2.654;2023-07-31T01:14:50;28.75;72.88
74661;SHT31;63191;39.566;2.654;2023-07-31T01:17:37;28.73;72.75
74661;SHT31;63191;39.566;2.654;2023-07-31T01:20:05;28.69;72.66
74661;SHT31;63191;39.566;2.654;2023-07-31T01:31:59;28.66;72.33
74661;SHT31;63191;39.566;2.654;2023-07-31T01:34:29;28.65;72.30
74661;SHT31;63191;39.566;2.654;2023-07-31T01:36:56;28.62;72.30
74661;SHT31;63191;39.566;2.654;2023-07-31T01:39:23;28.62;72.36
74661;SHT31;63191;39.566;2.654;2023-07-31T01:41:49;28.61;72.36
74661;SHT31;63191;39.566;2.654;2023-07-31T01:44:15;28.60;72.39
74661;SHT31;63191;39.566;2.654;2023-07-31T01:46:41;28.59;72.40
74661;SHT31;63191;39.566;2.654;2023-07-31T01:49:07;28.60;72.41
74661;SHT31;63191;39.566;2.654;2023-07-31T01:51:33;28.60;72.46
74661;SHT31;63191;39.566;2.654;2023-07-31T01:54:01;28.59;72.50
74661;SHT31;63191;39.566;2.654;2023-07-31T01:56:28;28.59;72.59
74661;SHT31;63191;39.566;2.654;2023-07-31T01:58:54;28.59;72.52
74661;SHT31;63191;39.566;2.654;2023-07-31T02:01:20;28.60;72.48
74661;SHT31;63191;39.566;2.654;2023-07-31T02:03:46;28.60;72.39
74661;SHT31;63191;39.566;2.654;2023-07-31T02:06:11;28.60;72.30
74661;SHT31;63191;39.566;2.654;2023-07-31T02:08:37;28.61;72.30
74661;SHT31;63191;39.566;2.654;2023-07-31T02:11:03;28.62;72.29
74661;SHT31;63191;39.566;2.654;2023-07-31T02:13:29;28.61;72.28
74661;SHT31;63191;39.566;2.654;2023-07-31T02:15:55;28.59;72.33
74661;SHT31;63191;39.566;2.654;2023-07-31T02:18:21;28.59;72.40
74661;SHT31;63191;39.566;2.654;2023-07-31T02:20:50;28.59;72.44
74661;SHT31;63191;39.566;2.654;2023-07-31T02:23:19;28.59;72.46
74661;SHT31;63191;39.566;2.654;2023-07-31T02:25:45;28.60;72.40
74661;SHT31;63191;39.566;2.654;2023-07-31T02:28:11;28.59;72.31
74661;SHT31;63191;39.566;2.654;2023-07-31T02:30:38;28.59;72.28
74661;SHT31;63191;39.566;2.654;2023-07-31T02:33:04;28.57;72.25
74661;SHT31;63191;39.566;2.654;2023-07-31T02:35:30;28.57;72.26
74661;SHT31;63191;39.566;2.654;2023-07-31T02:37:56;28.56;72.24
74661;SHT31;63191;39.566;2.654;2023-07-31T02:40:22;28.55;72.13
74661;SHT31;63191;39.566;2.654;2023-07-31T02:42:48;28.51;72.05
74661;SHT31;63191;39.566;2.654;2023-07-31T02:45:14;28.48;72.09
74661;SHT31;63191;39.566;2.654;2023-07-31T02:47:40;28.42;72.13
74661;SHT31;63191;39.566;2.654;2023-07-31T02:50:06;28.36;72.31
74661;SHT31;63191;39.566;2.654;2023-07-31T02:52:32;28.28;72.57
74661;SHT31;63191;39.566;2.654;2023-07-31T02:54:58;28.22;72.75
74661;SHT31;63191;39.566;2.654;2023-07-31T02:57:24;28.16;72.97
74661;SHT31;63191;39.566;2.654;2023-07-31T02:59:49;28.10;73.14
74661;SHT31;63191;39.566;2.654;2023-07-31T03:02:15;28.05;73.32
74661;SHT31;63191;39.566;2.654;2023-07-31T03:04:41;27.98;73.49
74661;SHT31;63191;39.566;2.654;2023-07-31T03:07:07;27.93;73.63
74661;SHT31;63191;39.566;2.654;2023-07-31T03:09:32;27.89;73.81
74661;SHT31;63191;39.566;2.654;2023-07-31T03:11:58;27.85;73.97
74661;SHT31;63191;39.566;2.654;2023-07-31T03:14:24;27.82;74.08
74661;SHT31;63191;39.566;2.654;2023-07-31T03:16:51;27.82;74.22
74661;SHT31;63191;39.566;2.654;2023-07-31T03:19:17;27.80;74.32
74661;SHT31;63191;39.566;2.654;2023-07-31T03:21:43;27.80;74.38
74661;SHT31;63191;39.566;2.654;2023-07-31T03:24:09;27.81;74.42
74661;SHT31;63191;39.566;2.654;2023-07-31T03:26:34;27.80;74.46
74661;SHT31;63191;39.566;2.654;2023-07-31T03:29:01;27.81;74.50
74661;SHT31;63191;39.566;2.654;2023-07-31T03:31:27;27.82;74.51
74661;SHT31;63191;39.566;2.654;2023-07-31T03:33:53;27.81;74.50
74661;SHT31;63191;39.566;2.654;2023-07-31T03:36:19;27.80;74.54
74661;SHT31;63191;39.566;2.654;2023-07-31T03:38:45;27.80;74.59
74661;SHT31;63191;39.566;2.654;2023-07-31T03:41:11;27.80;74.63
74661;SHT31;63191;39.566;2.654;2023-07-31T03:43:37;27.81;74.70
74661;SHT31;63191;39.566;2.654;2023-07-31T03:46:04;27.83;74.70
74661;SHT31;63191;39.566;2.654;2023-07-31T03:48:30;27.85;74.65
74661;SHT31;63191;39.566;2.654;2023-07-31T03:50:56;27.86;74.63
74661;SHT31;63191;39.566;2.654;2023-07-31T03:53:21;27.88;74.61
74661;SHT31;63191;39.566;2.654;2023-07-31T03:55:47;27.86;74.60
74661;SHT31;63191;39.566;2.654;2023-07-31T03:58:13;27.86;74.60
74661;SHT31;63191;39.566;2.654;2023-07-31T04:00:39;27.86;74.61
74661;SHT31;63191;39.566;2.654;2023-07-31T04:03:05;27.86;74.72
74661;SHT31;63191;39.566;2.654;2023-07-31T04:05:31;27.86;74.72
74661;SHT31;63191;39.566;2.654;2023-07-31T04:07:58;27.86;74.78
74661;SHT31;63191;39.566;2.654;2023-07-31T04:10:23;27.87;74.73
74661;SHT31;63191;39.566;2.654;2023-07-31T04:12:49;27.89;74.70
74661;SHT31;63191;39.566;2.654;2023-07-31T04:15:15;27.88;74.68
74661;SHT31;63191;39.566;2.654;2023-07-31T04:17:41;27.88;74.62
74661;SHT31;63191;39.566;2.654;2023-07-31T04:20:07;27.89;74.63
74661;SHT31;63191;39.566;2.654;2023-07-31T04:22:33;27.90;74.59
74661;SHT31;63191;39.566;2.654;2023-07-31T04:24:59;27.91;74.53
74661;SHT31;63191;39.566;2.654;2023-07-31T04:27:25;27.93;74.51
74661;SHT31;63191;39.566;2.654;2023-07-31T04:29:50;27.93;74.50
74661;SHT31;63191;39.566;2.654;2023-07-31T04:32:16;27.92;74.58
74661;SHT31;63191;39.566;2.654;2023-07-31T04:34:44;27.90;74.76
74661;SHT31;63191;39.566;2.654;2023-07-31T04:37:10;27.86;74.81
74661;SHT31;63191;39.566;2.654;2023-07-31T04:39:35;27.85;74.87
74661;SHT31;63191;39.566;2.654;2023-07-31T04:42:01;27.84;74.89
74661;SHT31;63191;39.566;2.654;2023-07-31T04:44:27;27.84;74.90
74661;SHT31;63191;39.566;2.654;2023-07-31T04:46:53;27.82;75.02
74661;SHT31;63191;39.566;2.654;2023-07-31T04:49:19;27.82;75.10
74661;SHT31;63191;39.566;2.654;2023-07-31T04:51:44;27.82;75.10
74661;SHT31;63191;39.566;2.654;2023-07-31T04:54:10;27.83;75.11
74661;SHT31;63191;39.566;2.654;2023-07-31T04:56:38;27.82;75.12
74661;SHT31;63191;39.566;2.654;2023-07-31T04:59:03;27.81;75.12
74661;SHT31;63191;39.566;2.654;2023-07-31T05:01:29;27.83;75.12
74661;SHT31;63191;39.566;2.654;2023-07-31T05:03:55;27.82;75.13
74661;SHT31;63191;39.566;2.654;2023-07-31T05:10:02;27.79;75.23
74661;SHT31;63191;39.566;2.654;2023-07-31T05:12:29;27.79;75.30
74661;SHT31;63191;39.566;2.654;2023-07-31T05:14:55;27.80;75.24
74661;SHT31;63191;39.566;2.654;2023-07-31T05:17:21;27.81;75.22
74661;SHT31;63191;39.566;2.654;2023-07-31T05:19:46;27.83;75.17
74661;SHT31;63191;39.566;2.654;2023-07-31T05:22:12;27.85;75.11
74661;SHT31;63191;39.566;2.654;2023-07-31T05:24:38;27.88;75.04
74661;SHT31;63191;39.566;2.654;2023-07-31T05:27:04;27.88;75.00
74661;SHT31;63191;39.566;2.654;2023-07-31T05:29:30;27.92;74.97
74661;SHT31;63191;39.566;2.654;2023-07-31T05:31:55;27.95;74.89
74661;SHT31;63191;39.566;2.654;2023-07-31T05:34:21;28.00;74.86
74661;SHT31;63191;39.566;2.654;2023-07-31T05:36:47;28.07;74.77
74661;SHT31;63191;39.566;2.654;2023-07-31T05:39:13;28.14;74.60
74661;SHT31;63191;39.566;2.654;2023-07-31T05:41:40;28.19;74.48
74661;SHT31;63191;39.566;2.654;2023-07-31T05:44:06;28.26;74.28
74661;SHT31;63191;39.566;2.654;2023-07-31T05:46:31;28.32;74.07
74661;SHT31;63191;39.566;2.654;2023-07-31T05:48:58;28.40;73.96
74661;SHT31;63191;39.566;2.654;2023-07-31T05:51:26;28.53;73.74
74661;SHT31;63191;39.566;2.654;2023-07-31T05:53:52;28.65;73.50
74661;SHT31;63191;39.566;2.654;2023-07-31T05:56:18;28.75;73.14
74661;SHT31;63191;39.566;2.654;2023-07-31T05:58:44;28.85;72.66
74661;SHT31;63191;39.566;2.654;2023-07-31T06:01:10;28.91;72.34
74661;SHT31;63191;39.566;2.654;2023-07-31T06:03:35;28.96;72.26
74661;SHT31;63191;39.566;2.654;2023-07-31T06:06:01;29.02;72.11
74661;SHT31;63191;39.566;2.654;2023-07-31T06:08:28;29.10;71.86
74661;SHT31;63191;39.566;2.654;2023-07-31T06:10:54;29.23;71.65
74661;SHT31;63191;39.566;2.654;2023-07-31T06:13:20;29.39;71.47
74661;SHT31;63191;39.566;2.654;2023-07-31T06:15:45;29.58;71.10
74661;SHT31;63191;39.566;2.654;2023-07-31T06:18:11;29.77;70.26
74661;SHT31;63191;39.566;2.654;2023-07-31T06:20:37;29.92;69.94
74661;SHT31;63191;39.566;2.654;2023-07-31T06:23:05;30.05;69.62
74661;SHT31;63191;39.566;2.654;2023-07-31T06:25:31;30.11;69.17
74661;SHT31;63191;39.566;2.654;2023-07-31T06:27:58;30.13;68.84
74661;SHT31;63191;39.566;2.654;2023-07-31T06:30:24;30.11;68.60
74661;SHT31;63191;39.566;2.654;2023-07-31T06:32:49;30.07;68.46
74661;SHT31;63191;39.566;2.654;2023-07-31T06:35:15;30.10;68.46
74661;SHT31;63191;39.566;2.654;2023-07-31T06:37:41;30.13;68.27
74661;SHT31;63191;39.566;2.654;2023-07-31T06:40:09;30.15;68.03
74661;SHT31;63191;39.566;2.654;2023-07-31T06:42:37;30.17;67.87
74661;SHT31;63191;39.566;2.654;2023-07-31T06:45:03;30.26;67.91
74661;SHT31;63191;39.566;2.654;2023-07-31T06:47:30;30.34;67.59
74661;SHT31;63191;39.566;2.654;2023-07-31T06:49:57;30.38;67.12
74661;SHT31;63191;39.566;2.654;2023-07-31T06:52:22;30.42;66.90
74661;SHT31;63191;39.566;2.654;2023-07-31T06:55:00;30.46;66.87
74661;SHT31;63191;39.566;2.654;2023-07-31T06:57:53;30.56;66.62
74661;SHT31;63191;39.566;2.654;2023-07-31T07:00:21;30.66;66.41
74661;SHT31;63191;39.566;2.654;2023-07-31T07:02:48;30.79;66.17
74661;SHT31;63191;39.566;2.654;2023-07-31T07:05:14;30.91;65.73
74661;SHT31;63191;39.566;2.654;2023-07-31T07:07:41;31.03;65.42
74661;SHT31;63191;39.566;2.654;2023-07-31T07:10:07;31.12;64.86
74661;SHT31;63191;39.566;2.654;2023-07-31T07:12:34;31.21;64.57
74661;SHT31;63191;39.566;2.654;2023-07-31T07:15:00;31.33;64.10
74661;SHT31;63191;39.566;2.654;2023-07-31T07:17:27;31.52;63.80
74661;SHT31;63191;39.566;2.654;2023-07-31T07:19:57;31.68;63.40
74661;SHT31;63191;39.566;2.654;2023-07-31T07:22:24;31.77;62.87
74661;SHT31;63191;39.566;2.654;2023-07-31T07:24:51;31.85;62.52
74661;SHT31;63191;39.566;2.654;2023-07-31T07:27:18;31.97;61.96
74661;SHT31;63191;39.566;2.654;2023-07-31T07:29:45;32.12;61.59
74661;SHT31;63191;39.566;2.654;2023-07-31T07:32:11;32.31;61.16
74661;SHT31;63191;39.566;2.654;2023-07-31T07:34:38;32.52;60.68
74661;SHT31;63191;39.566;2.654;2023-07-31T07:37:03;32.67;59.94
74661;SHT31;63191;39.566;2.654;2023-07-31T07:39:30;32.81;59.46
74661;SHT31;63191;39.566;2.654;2023-07-31T07:41:55;32.95;58.99
74661;SHT31;63191;39.566;2.654;2023-07-31T07:44:21;33.10;58.74
74661;SHT31;63191;39.566;2.654;2023-07-31T07:46:47;33.21;58.04
74661;SHT31;63191;39.566;2.654;2023-07-31T07:49:12;33.32;57.95
74661;SHT31;63191;39.566;2.654;2023-07-31T07:51:38;33.48;57.71
74661;SHT31;63191;39.566;2.654;2023-07-31T07:54:05;33.57;57.18
74661;SHT31;63191;39.566;2.654;2023-07-31T07:56:32;33.69;56.67
74661;SHT31;63191;39.566;2.654;2023-07-31T07:58:58;33.83;56.38
74661;SHT31;63191;39.566;2.654;2023-07-31T08:01:24;33.98;55.60
74661;SHT31;63191;39.566;2.654;2023-07-31T08:03:50;34.24;55.39
74661;SHT31;63191;39.566;2.654;2023-07-31T08:06:15;34.40;54.86
74661;SHT31;63191;39.566;2.654;2023-07-31T08:08:42;34.48;54.68
74661;SHT31;63191;39.566;2.654;2023-07-31T08:11:08;34.52;54.32
74661;SHT31;63191;39.566;2.654;2023-07-31T08:13:33;34.57;54.21
74661;SHT31;63191;39.566;2.654;2023-07-31T08:16:01;34.53;53.79
74661;SHT31;63191;39.566;2.654;2023-07-31T08:18:30;34.46;53.63
74661;SHT31;63191;39.566;2.654;2023-07-31T08:20:57;34.46;53.40
74661;SHT31;63191;39.566;2.654;2023-07-31T08:23:22;34.39;53.19
74661;SHT31;63191;39.566;2.654;2023-07-31T08:25:48;34.31;53.06
74661;SHT31;63191;39.566;2.654;2023-07-31T08:28:15;34.20;52.94
74661;SHT31;63191;39.566;2.654;2023-07-31T08:30:42;34.08;53.14
74661;SHT31;63191;39.566;2.654;2023-07-31T08:33:08;33.98;53.52
74661;SHT31;63191;39.566;2.654;2023-07-31T08:35:33;33.93;53.63
74661;SHT31;63191;39.566;2.654;2023-07-31T08:38:01;33.85;53.39
74661;SHT31;63191;39.566;2.654;2023-07-31T08:40:27;33.69;53.69
74661;SHT31;63191;39.566;2.654;2023-07-31T08:42:54;33.50;53.91
74661;SHT31;63191;39.566;2.654;2023-07-31T08:45:27;33.35;54.31
74661;SHT31;63191;39.566;2.654;2023-07-31T08:47:54;33.32;54.56
74661;SHT31;63191;39.566;2.654;2023-07-31T08:50:24;33.35;54.44
74661;SHT31;63191;39.566;2.654;2023-07-31T08:52:50;33.40;54.38
74661;SHT31;63191;39.566;2.654;2023-07-31T08:55:17;33.39;53.92
74661;SHT31;63191;39.566;2.654;2023-07-31T08:57:50;33.39;54.08
74661;SHT31;63191;39.566;2.654;2023-07-31T09:00:19;33.44;53.86
74661;SHT31;63191;39.566;2.654;2023-07-31T09:02:51;33.49;53.84
74661;SHT31;63191;39.566;2.654;2023-07-31T09:05:23;33.59;54.21
74661;SHT31;63191;39.566;2.654;2023-07-31T09:07:51;33.67;54.62
74661;SHT31;63191;39.566;2.654;2023-07-31T09:10:17;33.75;54.33
74661;SHT31;63191;39.566;2.654;2023-07-31T09:12:43;33.81;54.08
74661;SHT31;63191;39.566;2.654;2023-07-31T09:15:10;33.88;53.70
74661;SHT31;63191;39.566;2.654;2023-07-31T09:17:36;33.84;52.93
74661;SHT31;63191;39.566;2.654;2023-07-31T09:20:18;33.69;52.86
74661;SHT31;63191;39.566;2.654;2023-07-31T09:22:46;33.58;53.21
74661;SHT31;63191;39.566;2.654;2023-07-31T09:30:19;33.60;53.69
74661;SHT31;63191;39.566;2.654;2023-07-31T09:32:47;33.59;53.11
74661;SHT31;63191;39.566;2.654;2023-07-31T09:35:22;33.53;52.98
74661;SHT31;63191;39.566;2.654;2023-07-31T09:38:00;33.48;52.86
74661;SHT31;63191;39.566;2.654;2023-07-31T09:43:00;33.52;53.35
74661;SHT31;63191;39.566;2.654;2023-07-31T09:45:33;33.64;53.38
74661;SHT31;63191;39.566;2.654;2023-07-31T09:48:02;33.76;53.27
74661;SHT31;63191;39.566;2.654;2023-07-31T09:50:34;33.82;52.67
74661;SHT31;63191;39.566;2.654;2023-07-31T09:53:03;33.86;52.76
74661;SHT31;63191;39.566;2.654;2023-07-31T09:55:29;33.94;52.58
74661;SHT31;63191;39.566;2.654;2023-07-31T09:57:56;33.98;52.22
74661;SHT31;63191;39.566;2.654;2023-07-31T10:00:22;34.00;52.29
74661;SHT31;63191;39.566;2.654;2023-07-31T10:02:52;33.94;52.56
74661;SHT31;63191;39.566;2.654;2023-07-31T10:05:19;33.91;52.88
74661;SHT31;63191;39.566;2.654;2023-07-31T10:07:48;33.91;53.01
74661;SHT31;63191;39.566;2.654;2023-07-31T10:10:20;33.82;52.87
74661;SHT31;63191;39.566;2.654;2023-07-31T10:12:47;33.69;53.29
74661;SHT31;63191;39.566;2.654;2023-07-31T10:15:15;33.55;53.45
74661;SHT31;63191;39.566;2.654;2023-07-31T10:17:42;33.42;53.66
74661;SHT31;63191;39.566;2.654;2023-07-31T10:20:08;33.32;54.08
74661;SHT31;63191;39.566;2.654;2023-07-31T10:22:35;33.27;53.96
74661;SHT31;63191;39.566;2.654;2023-07-31T10:25:02;33.24;54.04
74661;SHT31;63191;39.566;2.654;2023-07-31T10:27:28;33.24;54.47
74661;SHT31;63191;39.566;2.654;2023-07-31T10:29:54;33.24;54.17
74661;SHT31;63191;39.566;2.654;2023-07-31T10:32:22;33.26;54.82
74661;SHT31;63191;39.566;2.654;2023-07-31T10:34:50;33.27;54.71
74661;SHT31;63191;39.566;2.654;2023-07-31T10:37:20;33.35;55.12
74661;SHT31;63191;39.566;2.654;2023-07-31T10:42:27;33.73;54.44
74661;SHT31;63191;39.566;2.654;2023-07-31T10:45:05;33.79;53.89
74661;SHT31;63191;39.566;2.654;2023-07-31T10:47:38;33.77;53.92
74661;SHT31;63191;39.566;2.654;2023-07-31T10:52:50;33.63;54.59
74661;SHT31;63191;39.566;2.654;2023-07-31T10:55:26;33.62;54.50
74661;SHT31;63191;39.566;2.654;2023-07-31T10:58:04;33.57;54.54
74661;SHT31;63191;39.566;2.654;2023-07-31T11:00:42;33.43;54.91
74661;SHT31;63191;39.566;2.654;2023-07-31T11:03:10;33.36;55.20
74661;SHT31;63191;39.566;2.654;2023-07-31T11:05:43;33.30;55.50
74661;SHT31;63191;39.566;2.654;2023-07-31T11:08:13;33.29;55.76
74661;SHT31;63191;39.566;2.654;2023-07-31T11:10:48;33.26;55.91
74661;SHT31;63191;39.566;2.654;2023-07-31T11:13:48;33.26;56.13
74661;SHT31;63191;39.566;2.654;2023-07-31T11:16:19;33.32;55.63
74661;SHT31;63191;39.566;2.654;2023-07-31T11:18:50;33.39;55.81
74661;SHT31;63191;39.566;2.654;2023-07-31T11:21:20;33.50;55.66
74661;SHT31;63191;39.566;2.654;2023-07-31T11:23:53;33.61;55.38
74661;SHT31;63191;39.566;2.654;2023-07-31T11:26:22;33.71;54.94
74661;SHT31;63191;39.566;2.654;2023-07-31T11:28:49;33.84;54.31
74661;SHT31;63191;39.566;2.654;2023-07-31T11:31:16;33.99;54.51
74661;SHT31;63191;39.566;2.654;2023-07-31T11:33:43;34.12;54.56
74661;SHT31;63191;39.566;2.654;2023-07-31T11:36:16;34.23;54.02
74661;SHT31;63191;39.566;2.654;2023-07-31T11:38:44;34.30;54.46
74661;SHT31;63191;39.566;2.654;2023-07-31T11:41:10;34.31;54.40
74661;SHT31;63191;39.566;2.654;2023-07-31T11:43:43;34.34;54.25
74661;SHT31;63191;39.566;2.654;2023-07-31T11:46:11;34.38;54.41
74661;SHT31;63191;39.566;2.654;2023-07-31T11:48:37;34.49;54.26
74661;SHT31;63191;39.566;2.654;2023-07-31T11:51:04;34.67;53.87
74661;SHT31;63191;39.566;2.654;2023-07-31T11:56:08;34.85;52.94
74661;SHT31;63191;39.566;2.654;2023-07-31T11:58:36;34.88;52.77
74661;SHT31;63191;39.566;2.654;2023-07-31T12:01:04;34.95;52.77
74661;SHT31;63191;39.566;2.654;2023-07-31T12:03:31;35.10;52.54
74661;SHT31;63191;39.566;2.654;2023-07-31T12:05:58;35.29;51.80
74661;SHT31;63191;39.566;2.654;2023-07-31T12:08:24;35.56;51.59
74661;SHT31;63191;39.566;2.654;2023-07-31T12:10:51;35.78;50.82
74661;SHT31;63191;39.566;2.654;2023-07-31T12:13:22;36.34;50.07
74661;SHT31;63191;39.566;2.654;2023-07-31T12:15:54;37.04;48.81
74661;SHT31;63191;39.566;2.654;2023-07-31T12:18:23;37.83;47.41
74661;SHT31;63191;39.566;2.654;2023-07-31T12:20:55;38.97;45.54
74661;SHT31;63191;39.566;2.654;2023-07-31T12:23:41;40.12;43.32
74661;SHT31;63191;39.566;2.654;2023-07-31T12:28:42;42.11;39.25
74661;SHT31;63191;39.566;2.654;2023-07-31T12:31:21;42.95;37.83
74661;SHT31;63191;39.566;2.654;2023-07-31T12:33:48;43.66;36.60
74661;SHT31;63191;39.566;2.654;2023-07-31T12:36:18;44.25;35.51
74661;SHT31;63191;39.566;2.654;2023-07-31T12:38:47;44.81;34.66
74661;SHT31;63191;39.566;2.654;2023-07-31T12:41:13;45.40;34.07
74661;SHT31;63191;39.566;2.654;2023-07-31T12:43:40;45.98;33.29
74661;SHT31;63191;39.566;2.654;2023-07-31T12:46:07;46.42;32.64
74661;SHT31;63191;39.566;2.654;2023-07-31T12:48:34;46.88;31.76
74661;SHT31;63191;39.566;2.654;2023-07-31T12:51:01;47.28;31.35
74661;SHT31;63191;39.566;2.654;2023-07-31T12:53:28;47.57;30.94
74661;SHT31;63191;39.566;2.654;2023-07-31T12:55:55;47.83;30.58
74661;SHT31;63191;39.566;2.654;2023-07-31T12:58:21;48.11;30.23
74661;SHT31;63191;39.566;2.654;2023-07-31T13:00:47;48.42;29.92
74661;SHT31;63191;39.566;2.654;2023-07-31T13:03:13;48.68;29.59
74661;SHT31;63191;39.566;2.654;2023-07-31T13:05:40;48.85;29.21
74661;SHT31;63191;39.566;2.654;2023-07-31T13:08:06;49.02;29.20
74661;SHT31;63191;39.566;2.654;2023-07-31T13:10:32;49.25;28.74
74661;SHT31;63191;39.566;2.654;2023-07-31T13:12:59;49.41;28.56
74661;SHT31;63191;39.566;2.654;2023-07-31T13:15:25;49.65;28.39
74661;SHT31;63191;39.566;2.654;2023-07-31T13:17:51;49.89;28.21
74661;SHT31;63191;39.566;2.654;2023-07-31T13:20:16;50.17;27.60
74661;SHT31;63191;39.566;2.654;2023-07-31T13:22:42;50.31;27.18
74661;SHT31;63191;39.566;2.654;2023-07-31T13:25:08;50.35;27.17
74661;SHT31;63191;39.566;2.654;2023-07-31T13:27:34;50.39;26.96
74661;SHT31;63191;39.566;2.654;2023-07-31T13:30:00;50.42;27.05
74661;SHT31;63191;39.566;2.654;2023-07-31T13:32:27;50.46;27.00
74661;SHT31;63191;39.566;2.654;2023-07-31T13:34:52;50.48;27.19
74661;SHT31;63191;39.566;2.654;2023-07-31T13:37:18;50.49;26.88
74661;SHT31;63191;39.566;2.654;2023-07-31T13:39:44;50.41;27.00
74661;SHT31;63191;39.566;2.654;2023-07-31T13:42:10;50.21;27.00
74661;SHT31;63191;39.566;2.654;2023-07-31T13:44:40;50.36;27.14
74661;SHT31;63191;39.566;2.654;2023-07-31T13:47:07;50.49;26.83
74661;SHT31;63191;39.566;2.654;2023-07-31T13:49:34;50.59;26.69
74661;SHT31;63191;39.566;2.654;2023-07-31T13:52:01;50.58;26.45
74661;SHT31;63191;39.566;2.654;2023-07-31T13:54:27;50.62;26.38
74661;SHT31;63191;39.566;2.654;2023-07-31T13:56:53;50.35;26.31
74661;SHT31;63191;39.566;2.654;2023-07-31T13:59:19;50.35;26.61
74661;SHT31;63191;39.566;2.654;2023-07-31T14:01:45;50.58;26.64
74661;SHT31;63191;39.566;2.654;2023-07-31T14:04:11;50.74;26.32
74661;SHT31;63191;39.566;2.654;2023-07-31T14:06:37;50.95;26.16
74661;SHT31;63191;39.566;2.654;2023-07-31T14:09:03;51.11;25.75
74661;SHT31;63191;39.566;2.654;2023-07-31T14:11:32;51.26;25.61
74661;SHT31;63191;39.566;2.654;2023-07-31T14:13:58;51.35;25.61
74661;SHT31;63191;39.566;2.654;2023-07-31T14:16:24;51.49;25.53
74661;SHT31;63191;39.566;2.654;2023-07-31T14:18:50;51.58;25.47
74661;SHT31;63191;39.566;2.654;2023-07-31T14:21:16;51.52;25.24
74661;SHT31;63191;39.566;2.654;2023-07-31T14:23:44;51.56;25.42
74661;SHT31;63191;39.566;2.654;2023-07-31T14:26:10;51.57;25.60
74661;SHT31;63191;39.566;2.654;2023-07-31T14:28:36;51.46;25.44
74661;SHT31;63191;39.566;2.654;2023-07-31T14:31:02;51.39;25.49
74661;SHT31;63191;39.566;2.654;2023-07-31T14:33:28;51.12;25.42
74661;SHT31;63191;39.566;2.654;2023-07-31T14:35:54;50.90;26.01
74661;SHT31;63191;39.566;2.654;2023-07-31T14:38:19;50.94;25.96
74661;SHT31;63191;39.566;2.654;2023-07-31T14:40:45;50.98;25.84
74661;SHT31;63191;39.566;2.654;2023-07-31T14:43:11;51.04;25.74
74661;SHT31;63191;39.566;2.654;2023-07-31T14:45:37;51.02;25.76
74661;SHT31;63191;39.566;2.654;2023-07-31T14:48:03;50.90;25.88
74661;SHT31;63191;39.566;2.654;2023-07-31T14:50:29;50.87;26.02
74661;SHT31;63191;39.566;2.654;2023-07-31T14:52:54;50.70;26.07
74661;SHT31;63191;39.566;2.654;2023-07-31T14:55:20;50.66;26.12
74661;SHT31;63191;39.566;2.654;2023-07-31T14:57:46;50.70;26.26
74661;SHT31;63191;39.566;2.654;2023-07-31T15:00:13;50.80;26.24
74661;SHT31;63191;39.566;2.654;2023-07-31T15:02:40;50.68;26.29
74661;SHT31;63191;39.566;2.654;2023-07-31T15:05:06;50.46;26.60
74661;SHT31;63191;39.566;2.654;2023-07-31T15:07:34;50.53;26.62
74661;SHT31;63191;39.566;2.654;2023-07-31T15:10:01;50.48;26.44
74661;SHT31;63191;39.566;2.654;2023-07-31T15:12:28;50.42;26.56
74661;SHT31;63191;39.566;2.654;2023-07-31T15:14:53;50.49;26.75
74661;SHT31;63191;39.566;2.654;2023-07-31T15:17:19;50.56;26.67
74661;SHT31;63191;39.566;2.654;2023-07-31T15:19:45;50.59;26.67
74661;SHT31;63191;39.566;2.654;2023-07-31T15:22:11;50.67;26.76
74661;SHT31;63191;39.566;2.654;2023-07-31T15:24:37;50.86;26.88
74661;SHT31;63191;39.566;2.654;2023-07-31T15:27:03;50.95;26.68
74661;SHT31;63191;39.566;2.654;2023-07-31T15:29:29;50.87;26.71
74661;SHT31;63191;39.566;2.654;2023-07-31T15:31:55;50.71;26.86
74661;SHT31;63191;39.566;2.654;2023-07-31T15:34:21;50.71;26.99
74661;SHT31;63191;39.566;2.654;2023-07-31T15:36:48;50.67;26.91
74661;SHT31;63191;39.566;2.654;2023-07-31T15:39:14;50.63;27.06
74661;SHT31;63191;39.566;2.654;2023-07-31T15:41:40;50.63;26.96
74661;SHT31;63191;39.566;2.654;2023-07-31T15:44:07;50.55;27.12
74661;SHT31;63191;39.566;2.654;2023-07-31T15:46:33;50.49;27.25
74661;SHT31;63191;39.566;2.654;2023-07-31T15:48:59;50.33;27.34
74661;SHT31;63191;39.566;2.654;2023-07-31T15:51:24;50.19;27.63
74661;SHT31;63191;39.566;2.654;2023-07-31T15:53:51;49.90;27.44
74661;SHT31;63191;39.566;2.654;2023-07-31T15:56:18;49.59;27.83
74661;SHT31;63191;39.566;2.654;2023-07-31T15:58:44;49.35;28.02
74661;SHT31;63191;39.566;2.654;2023-07-31T16:01:09;49.22;28.40
74661;SHT31;63191;39.566;2.654;2023-07-31T16:03:36;48.88;28.39